Time;durP1;ratioP1;P1;durP2;ratioP2;P2;SDS_P1;SDS_P2;PMS_P1;PMS_P2;Temp;Humidity;BMP_temperature;BMP_pressure;BME280_temperature;BME280_humidity;BME280_pressure;Samples;Min_cycle;Max_cycle;Signal;HPM_P1;HPM_P2
2022/01/21 00:02:42;;;;;;;6.13;0.40;;;;;;;;;;10449805;28;20588;-62
2022/01/21 00:07:44;;;;;;;2.40;0.40;;;;;;;;;;10451635;28;20217;-62
2022/01/21 00:12:47;;;;;;;1.53;0.43;;;;;;;;;;10449510;28;20209;-62
2022/01/21 00:17:48;;;;;;;2.67;0.60;;;;;;;;;;10445805;28;20281;-63
2022/01/21 00:33:29;;;;;;;1.20;0.40;;;;;;;;;;10444303;28;20273;-62
2022/01/21 00:38:31;;;;;;;1.50;0.40;;;;;;;;;;10447627;28;20194;-62
2022/01/21 00:43:43;;;;;;;0.70;0.27;;;;;;;;;;10438490;28;20301;-62
2022/01/21 00:48:44;;;;;;;2.67;0.43;;;;;;;;;;10439013;28;20921;-62
2022/01/21 00:53:45;;;;;;;2.90;0.50;;;;;;;;;;10446374;28;20194;-62
2022/01/21 00:58:46;;;;;;;2.30;0.40;;;;;;;;;;10451252;28;20680;-62
2022/01/21 01:03:47;;;;;;;0.93;0.30;;;;;;;;;;10444291;28;20206;-62
2022/01/21 01:08:50;;;;;;;1.58;0.50;;;;;;;;;;10447854;28;20191;-61
2022/01/21 01:29:51;;;;;;;0.75;0.30;;;;;;;;;;10446260;28;20238;-62
2022/01/21 01:34:52;;;;;;;2.57;0.50;;;;;;;;;;10441516;28;20211;-62
2022/01/21 01:50:34;;;;;;;0.83;0.43;;;;;;;;;;10458594;28;20218;-62
2022/01/21 01:55:36;;;;;;;4.17;0.43;;;;;;;;;;10459462;28;20272;-62
2022/01/21 02:00:37;;;;;;;3.60;0.50;;;;;;;;;;10456349;28;20267;-62
2022/01/21 02:05:38;;;;;;;6.30;0.80;;;;;;;;;;10460289;28;20555;-61
2022/01/21 02:10:43;;;;;;;4.23;0.40;;;;;;;;;;10456217;28;20575;-62
2022/01/21 02:15:44;;;;;;;6.67;0.53;;;;;;;;;;10458542;28;20225;-61
2022/01/21 02:26:05;;;;;;;6.77;0.30;;;;;;;;;;10454107;28;20233;-62
2022/01/21 02:31:07;;;;;;;7.67;0.70;;;;;;;;;;10454013;28;20211;-62
2022/01/21 02:36:08;;;;;;;3.60;0.60;;;;;;;;;;10450837;28;20213;-61
2022/01/21 02:41:10;;;;;;;1.60;0.40;;;;;;;;;;10445341;28;20194;-61
2022/01/21 02:46:14;;;;;;;2.37;0.43;;;;;;;;;;10455368;28;20268;-62
2022/01/21 02:51:15;;;;;;;3.70;0.80;;;;;;;;;;10443955;28;20226;-61
2022/01/21 02:56:18;;;;;;;2.03;0.50;;;;;;;;;;10445285;28;20728;-61
2022/01/21 03:01:19;;;;;;;4.17;0.50;;;;;;;;;;10441421;28;20218;-61
2022/01/21 03:06:22;;;;;;;4.80;0.47;;;;;;;;;;10448833;28;20646;-61
2022/01/21 03:11:24;;;;;;;3.40;0.70;;;;;;;;;;10430879;28;20570;-61
2022/01/21 03:16:25;;;;;;;4.27;0.50;;;;;;;;;;10452484;28;20755;-61
2022/01/21 03:21:26;;;;;;;4.00;0.60;;;;;;;;;;10436360;28;20203;-61
2022/01/21 03:26:28;;;;;;;3.07;0.53;;;;;;;;;;10452623;28;20662;-61
2022/01/21 03:31:30;;;;;;;2.00;0.30;;;;;;;;;;10431465;28;20268;-61
2022/01/21 03:36:35;;;;;;;5.10;0.63;;;;;;;;;;10432539;28;20235;-61
2022/01/21 03:41:36;;;;;;;2.93;0.60;;;;;;;;;;10458890;28;20206;-61
2022/01/21 03:46:40;;;;;;;5.22;1.50;;;;;;;;;;10454273;28;20241;-61
2022/01/21 03:51:42;;;;;;;6.47;1.20;;;;;;;;;;10430484;28;20702;-61
2022/01/21 03:56:43;;;;;;;6.33;1.13;;;;;;;;;;10410123;28;20203;-61
2022/01/21 04:01:44;;;;;;;6.67;0.57;;;;;;;;;;10408545;28;20277;-61
2022/01/21 04:06:46;;;;;;;7.10;0.90;;;;;;;;;;10414690;28;20211;-61
2022/01/21 04:11:47;;;;;;;5.50;1.00;;;;;;;;;;10403828;28;20187;-61
2022/01/21 04:16:49;;;;;;;5.33;0.93;;;;;;;;;;10407116;28;20187;-61
2022/01/21 04:21:50;;;;;;;14.27;1.50;;;;;;;;;;10387016;28;20191;-60
2022/01/21 04:26:51;;;;;;;9.20;0.93;;;;;;;;;;10408157;28;20692;-61
2022/01/21 04:31:53;;;;;;;9.97;1.03;;;;;;;;;;10424758;28;20209;-61
2022/01/21 04:36:59;;;;;;;8.67;1.30;;;;;;;;;;10420699;28;20753;-61
2022/01/21 04:47:19;;;;;;;5.57;1.30;;;;;;;;;;10407777;28;20302;-62
2022/01/21 04:52:23;;;;;;;11.13;1.80;;;;;;;;;;10393697;28;20309;-61
2022/01/21 04:57:33;;;;;;;2.85;1.17;;;;;;;;;;10407958;28;20230;-62
2022/01/21 05:02:36;;;;;;;15.10;1.43;;;;;;;;;;10422990;28;20269;-62
2022/01/21 05:07:40;;;;;;;11.20;1.57;;;;;;;;;;10401424;28;20737;-62
2022/01/21 05:12:42;;;;;;;9.00;1.30;;;;;;;;;;10409035;28;20313;-61
2022/01/21 05:17:48;;;;;;;16.90;2.37;;;;;;;;;;10414326;28;20191;-62
2022/01/21 05:22:52;;;;;;;11.53;1.70;;;;;;;;;;10428533;28;20293;-61
2022/01/21 05:27:55;;;;;;;9.32;1.45;;;;;;;;;;10416244;28;20732;-61
2022/01/21 05:32:57;;;;;;;6.07;1.10;;;;;;;;;;10407857;28;20207;-61
2022/01/21 05:38:16;;;;;;;5.30;1.13;;;;;;;;;;10425643;28;20204;-61
2022/01/21 05:43:38;;;;;;;6.97;1.70;;;;;;;;;;10413598;28;20214;-61
2022/01/21 05:48:55;;;;;;;14.48;1.60;;;;;;;;;;10443510;28;20211;-61
2022/01/21 05:54:18;;;;;;;6.40;1.50;;;;;;;;;;10453993;28;20292;-61
2022/01/21 05:59:42;;;;;;;8.50;1.65;;;;;;;;;;10421966;28;20241;-61
2022/01/21 06:04:49;;;;;;;9.03;2.10;;;;;;;;;;10447310;28;20305;-61
2022/01/21 06:09:50;;;;;;;7.73;1.90;;;;;;;;;;10448820;28;20194;-60
2022/01/21 06:14:53;;;;;;;11.67;2.17;;;;;;;;;;10444916;28;20324;-62
2022/01/21 06:19:54;;;;;;;12.50;2.63;;;;;;;;;;10438490;28;20757;-61
2022/01/21 06:24:56;;;;;;;12.60;1.80;;;;;;;;;;10461371;28;20217;-62
2022/01/21 06:29:57;;;;;;;9.70;1.53;;;;;;;;;;10456523;28;20686;-62
2022/01/21 06:34:58;;;;;;;9.13;1.60;;;;;;;;;;10455001;28;20210;-61
2022/01/21 06:39:59;;;;;;;6.13;1.42;;;;;;;;;;10457818;28;20198;-62
2022/01/21 06:45:01;;;;;;;10.43;1.45;;;;;;;;;;10458650;28;20650;-61
2022/01/21 06:50:02;;;;;;;9.63;1.73;;;;;;;;;;10453702;28;20226;-61
2022/01/21 06:55:04;;;;;;;9.70;1.65;;;;;;;;;;10453377;28;20202;-62
2022/01/21 07:00:07;;;;;;;8.55;1.98;;;;;;;;;;10458320;28;20300;-62
2022/01/21 07:05:08;;;;;;;7.07;1.15;;;;;;;;;;10455623;28;20659;-62
2022/01/21 07:10:11;;;;;;;10.43;1.92;;;;;;;;;;10457128;28;20190;-62
2022/01/21 07:15:15;;;;;;;12.13;1.58;;;;;;;;;;10450078;28;20190;-62
2022/01/21 07:20:16;;;;;;;6.53;2.28;;;;;;;;;;10456176;28;20210;-62
2022/01/21 07:25:17;;;;;;;5.15;2.03;;;;;;;;;;10443688;28;20627;-63
2022/01/21 07:30:19;;;;;;;11.43;2.58;;;;;;;;;;10456752;28;20205;-63
2022/01/21 07:35:20;;;;;;;7.22;2.63;;;;;;;;;;10457232;28;20199;-63
2022/01/21 07:40:21;;;;;;;8.63;2.83;;;;;;;;;;10454709;28;20194;-62
2022/01/21 07:45:22;;;;;;;8.82;2.58;;;;;;;;;;10455173;28;20248;-62
2022/01/21 07:50:23;;;;;;;11.40;2.60;;;;;;;;;;10456174;28;20300;-63
2022/01/21 07:55:24;;;;;;;10.88;3.05;;;;;;;;;;10452576;28;20194;-64
2022/01/21 08:00:25;;;;;;;10.93;2.58;;;;;;;;;;10455043;28;20198;-64
2022/01/21 08:05:31;;;;;;;6.95;2.60;;;;;;;;;;10450948;28;20764;-63
2022/01/21 08:10:33;;;;;;;15.48;1.85;;;;;;;;;;10452036;28;20190;-64
2022/01/21 08:15:34;;;;;;;7.65;2.03;;;;;;;;;;10446453;28;20225;-64
2022/01/21 08:20:35;;;;;;;6.65;2.00;;;;;;;;;;10453366;28;20204;-64
2022/01/21 08:25:36;;;;;;;8.43;1.50;;;;;;;;;;10452933;28;20268;-64
2022/01/21 08:30:38;;;;;;;5.65;1.70;;;;;;;;;;10456034;28;20267;-64
2022/01/21 08:35:39;;;;;;;10.20;2.47;;;;;;;;;;10454231;28;20195;-64
2022/01/21 08:40:40;;;;;;;8.35;2.10;;;;;;;;;;10449816;28;20611;-65
2022/01/21 08:45:41;;;;;;;8.90;2.28;;;;;;;;;;10452084;28;20213;-64
2022/01/21 08:50:42;;;;;;;9.37;2.37;;;;;;;;;;10449795;28;20911;-64
2022/01/21 08:55:43;;;;;;;8.25;2.15;;;;;;;;;;10449119;28;20198;-64
2022/01/21 09:00:45;;;;;;;13.43;2.38;;;;;;;;;;10447339;28;20206;-63
2022/01/21 09:05:49;;;;;;;10.82;2.17;;;;;;;;;;10452393;28;20224;-64
2022/01/21 09:10:51;;;;;;;10.18;2.47;;;;;;;;;;10448052;28;20281;-64
2022/01/21 09:15:52;;;;;;;5.88;1.85;;;;;;;;;;10456931;28;20335;-64
2022/01/21 09:20:53;;;;;;;4.60;1.70;;;;;;;;;;10450443;28;20191;-64
2022/01/21 09:25:54;;;;;;;4.38;1.10;;;;;;;;;;10455689;28;20214;-64
2022/01/21 09:30:55;;;;;;;5.53;1.67;;;;;;;;;;10447819;28;20254;-64
2022/01/21 09:35:56;;;;;;;6.10;1.42;;;;;;;;;;10451538;28;20199;-64
2022/01/21 09:40:57;;;;;;;8.70;1.60;;;;;;;;;;10448757;28;20203;-63
2022/01/21 09:45:59;;;;;;;6.20;1.30;;;;;;;;;;10451031;28;20218;-63
2022/01/21 09:51:00;;;;;;;4.13;1.45;;;;;;;;;;10447017;28;21414;-65
2022/01/21 09:56:04;;;;;;;6.07;1.35;;;;;;;;;;10449085;28;20197;-65
2022/01/21 10:01:06;;;;;;;4.47;0.70;;;;;;;;;;10442487;28;20258;-64
2022/01/21 10:06:07;;;;;;;4.85;0.98;;;;;;;;;;10453213;28;20210;-64
2022/01/21 10:11:09;;;;;;;2.55;0.75;;;;;;;;;;10455139;28;20222;-65
2022/01/21 10:16:11;;;;;;;9.85;1.13;;;;;;;;;;10442631;28;20197;-64
2022/01/21 10:21:12;;;;;;;2.10;0.82;;;;;;;;;;10451661;28;20194;-65
2022/01/21 10:26:15;;;;;;;5.95;0.60;;;;;;;;;;10451070;28;20210;-65
2022/01/21 10:31:18;;;;;;;5.47;0.77;;;;;;;;;;10454797;28;20298;-66
2022/01/21 10:36:27;;;;;;;6.63;0.75;;;;;;;;;;10452309;28;20195;-65
2022/01/21 10:41:34;;;;;;;4.22;0.63;;;;;;;;;;10454589;28;20719;-65
2022/01/21 10:46:35;;;;;;;3.28;0.50;;;;;;;;;;10452639;28;20622;-65
2022/01/21 10:51:38;;;;;;;2.10;0.30;;;;;;;;;;10448308;28;20214;-65
2022/01/21 10:56:39;;;;;;;4.95;0.47;;;;;;;;;;10451823;28;20297;-66
2022/01/21 11:01:40;;;;;;;4.07;0.70;;;;;;;;;;10455199;28;20219;-63
2022/01/21 11:06:51;;;;;;;2.38;0.50;;;;;;;;;;10456563;28;20206;-65
2022/01/21 11:12:09;;;;;;;1.42;0.55;;;;;;;;;;10455460;28;20244;-66
2022/01/21 11:17:15;;;;;;;4.40;0.70;;;;;;;;;;10449714;28;20240;-66
2022/01/21 11:22:16;;;;;;;3.00;0.75;;;;;;;;;;10457584;28;20206;-65
2022/01/21 11:27:17;;;;;;;5.47;0.50;;;;;;;;;;10451552;28;20203;-66
2022/01/21 11:32:18;;;;;;;2.33;0.70;;;;;;;;;;10448912;28;20203;-65
2022/01/21 11:37:20;;;;;;;7.50;0.70;;;;;;;;;;10449469;28;20198;-66
2022/01/21 11:42:21;;;;;;;4.80;0.60;;;;;;;;;;10451796;28;20194;-67
2022/01/21 11:47:38;;;;;;;2.97;0.70;;;;;;;;;;10448619;28;20211;-65
2022/01/21 11:52:45;;;;;;;5.72;0.98;;;;;;;;;;10449734;28;20214;-65
2022/01/21 11:57:46;;;;;;;4.88;0.40;;;;;;;;;;10446448;28;20197;-65
2022/01/21 12:02:51;;;;;;;2.13;0.70;;;;;;;;;;10448022;28;20793;-66
2022/01/21 12:07:52;;;;;;;2.63;0.63;;;;;;;;;;10436302;28;20210;-66
2022/01/21 12:13:15;;;;;;;7.82;0.77;;;;;;;;;;10452862;28;20205;-66
2022/01/21 12:19:10;;;;;;;2.83;0.70;;;;;;;;;;10446408;28;20676;-66
2022/01/21 12:24:45;;;;;;;4.05;0.98;;;;;;;;;;10455502;28;20211;-66
2022/01/21 12:30:26;;;;;;;2.40;0.90;;;;;;;;;;10446750;28;20224;-66
2022/01/21 12:35:56;;;;;;;1.35;0.52;;;;;;;;;;10448104;28;20218;-65
2022/01/21 12:41:22;;;;;;;4.15;0.68;;;;;;;;;;10452387;28;20206;-66
2022/01/21 12:46:45;;;;;;;1.30;0.85;;;;;;;;;;10453202;28;20222;-66
2022/01/21 15:59:39;;;;;;;4.28;1.00;;;;;;;;;;10399487;28;20207;-66
2022/01/21 16:04:40;;;;;;;5.88;1.10;;;;;;;;;;10404987;28;20797;-66
2022/01/21 16:09:41;;;;;;;5.50;1.75;;;;;;;;;;10409999;28;20884;-67
2022/01/21 16:14:42;;;;;;;5.95;1.48;;;;;;;;;;10412666;28;20203;-65
2022/01/21 16:19:44;;;;;;;4.50;1.55;;;;;;;;;;10406183;28;20195;-67
2022/01/21 16:24:45;;;;;;;6.82;2.85;;;;;;;;;;10409800;28;20230;-67
2022/01/21 16:29:46;;;;;;;10.68;3.85;;;;;;;;;;10411759;28;20191;-67
2022/01/21 16:34:49;;;;;;;8.48;4.60;;;;;;;;;;10410507;28;20215;-67
2022/01/21 16:39:50;;;;;;;7.47;4.35;;;;;;;;;;10413555;28;20194;-67
2022/01/21 16:44:51;;;;;;;9.70;3.45;;;;;;;;;;10410320;28;20211;-67
2022/01/21 16:49:52;;;;;;;6.78;2.03;;;;;;;;;;10404535;28;20194;-67
2022/01/21 16:54:53;;;;;;;8.27;1.60;;;;;;;;;;10408069;28;20199;-66
2022/01/21 16:59:55;;;;;;;14.07;2.38;;;;;;;;;;10411095;28;20219;-67
2022/01/21 17:04:56;;;;;;;6.85;2.70;;;;;;;;;;10409514;28;20223;-67
2022/01/21 17:09:57;;;;;;;10.15;3.70;;;;;;;;;;10406623;28;20192;-67
2022/01/21 17:14:58;;;;;;;11.60;3.13;;;;;;;;;;10402412;28;20306;-66
2022/01/21 17:19:59;;;;;;;6.70;2.90;;;;;;;;;;10410435;28;20245;-66
2022/01/21 17:25:00;;;;;;;9.80;3.55;;;;;;;;;;10407774;28;20245;-66
2022/01/21 17:30:02;;;;;;;8.60;4.13;;;;;;;;;;10421108;28;20221;-67
2022/01/21 17:35:03;;;;;;;16.92;4.85;;;;;;;;;;10418904;28;20301;-67
2022/01/21 17:40:05;;;;;;;18.25;7.85;;;;;;;;;;10430845;22;20203;-77
2022/01/21 17:45:11;;;;;;;18.63;8.10;;;;;;;;;;10408405;28;20288;-77
2022/01/21 17:50:13;;;;;;;12.10;7.10;;;;;;;;;;10444666;28;20277;-76
2022/01/21 17:55:14;;;;;;;20.63;7.65;;;;;;;;;;10438217;28;20748;-76
2022/01/21 18:00:19;;;;;;;35.28;12.15;;;;;;;;;;10441424;28;20215;-77
2022/01/21 18:05:20;;;;;;;21.17;8.57;;;;;;;;;;10443948;28;20862;-77
2022/01/21 18:11:10;;;;;;;16.80;8.90;;;;;;;;;;10406193;28;20384;-78
2022/01/21 18:15:48;;;;;;;26.17;9.40;;;;;;;;;;10427384;28;20205;-77
2022/01/21 18:20:49;;;;;;;21.80;9.60;;;;;;;;;;10427601;28;20201;-78
2022/01/21 18:25:52;;;;;;;27.95;11.52;;;;;;;;;;10454044;28;20855;-78
2022/01/21 18:30:53;;;;;;;23.13;11.00;;;;;;;;;;10442801;28;20254;-77
2022/01/21 18:35:55;;;;;;;29.73;10.40;;;;;;;;;;10443739;28;20191;-79
2022/01/21 18:40:57;;;;;;;19.65;9.90;;;;;;;;;;10414627;28;20226;-78
2022/01/21 18:46:02;;;;;;;21.27;10.50;;;;;;;;;;10446117;28;20864;-78
2022/01/21 18:51:06;;;;;;;17.67;10.80;;;;;;;;;;10432572;28;20286;-78
2022/01/21 18:56:07;;;;;;;25.83;10.25;;;;;;;;;;10425373;28;20286;-77
2022/01/21 19:01:09;;;;;;;23.27;10.90;;;;;;;;;;10424611;28;20242;-76
2022/01/21 19:06:10;;;;;;;25.17;10.85;;;;;;;;;;10420411;28;20229;-75
2022/01/21 19:11:11;;;;;;;25.08;10.77;;;;;;;;;;10418658;28;20272;-78
2022/01/21 19:16:12;;;;;;;21.45;10.73;;;;;;;;;;10421911;28;20225;-78
2022/01/21 19:21:15;;;;;;;26.60;11.57;;;;;;;;;;10438961;28;20179;-77
2022/01/21 19:26:30;;;;;;;26.48;10.70;;;;;;;;;;10426395;28;20209;-78
2022/01/21 19:31:31;;;;;;;29.98;10.95;;;;;;;;;;10429992;28;20218;-78
2022/01/21 19:36:32;;;;;;;26.02;10.38;;;;;;;;;;10433824;28;20227;-76
2022/01/21 19:41:33;;;;;;;26.95;10.23;;;;;;;;;;10432208;28;20223;-78
2022/01/21 19:46:39;;;;;;;23.85;10.32;;;;;;;;;;10450269;28;20206;-78
2022/01/21 19:51:40;;;;;;;20.58;9.60;;;;;;;;;;10431827;28;20290;-77
2022/01/21 19:56:45;;;;;;;17.73;9.13;;;;;;;;;;10444975;28;20290;-77
2022/01/21 20:02:00;;;;;;;18.25;8.80;;;;;;;;;;10449270;28;20801;-77
2022/01/21 20:12:36;;;;;;;16.02;9.25;;;;;;;;;;10440498;28;20198;-77
2022/01/21 20:17:42;;;;;;;21.98;9.18;;;;;;;;;;10419584;28;20890;-77
2022/01/21 20:22:43;;;;;;;13.82;8.50;;;;;;;;;;10418867;28;20205;-77
2022/01/21 20:27:44;;;;;;;12.55;8.75;;;;;;;;;;10408680;28;20210;-77
2022/01/21 20:32:49;;;;;;;17.48;9.50;;;;;;;;;;10439287;28;20245;-78
2022/01/21 20:37:50;;;;;;;15.95;10.40;;;;;;;;;;10412957;28;20611;-78
2022/01/21 20:42:52;;;;;;;13.15;9.45;;;;;;;;;;10424189;28;20217;-77
2022/01/21 20:47:53;;;;;;;11.95;7.97;;;;;;;;;;10429687;28;20963;-78
2022/01/21 20:52:55;;;;;;;13.18;8.13;;;;;;;;;;10435844;28;20270;-78
2022/01/21 20:57:56;;;;;;;9.82;8.45;;;;;;;;;;10409742;28;20190;-78
2022/01/21 21:02:57;;;;;;;10.15;7.93;;;;;;;;;;10439415;28;20202;-78
2022/01/21 21:07:58;;;;;;;8.20;7.25;;;;;;;;;;10425602;28;20194;-79
2022/01/21 21:12:59;;;;;;;7.00;6.30;;;;;;;;;;10431939;28;20222;-79
2022/01/21 21:18:13;;;;;;;7.22;5.55;;;;;;;;;;10436145;28;20286;-79
2022/01/21 22:27:29;;;;;;;2.95;2.85;;;;;;;;;;10481031;28;20221;-77
2022/01/21 23:04:46;;;;;;;2.72;2.50;;;;;;;;;;10407018;28;20241;-79
2022/01/21 23:09:47;;;;;;;2.17;2.08;;;;;;;;;;10391847;28;20196;-79
2022/01/21 23:14:50;;;;;;;1.73;1.63;;;;;;;;;;10387320;28;20261;-78
2022/01/21 23:19:51;;;;;;;1.35;1.35;;;;;;;;;;10379953;28;20203;-77
2022/01/21 23:24:53;;;;;;;1.63;1.52;;;;;;;;;;10382587;28;20203;-78
2022/01/21 23:29:54;;;;;;;1.20;1.20;;;;;;;;;;10382595;28;20211;-78
2022/01/21 23:35:05;;;;;;;0.93;0.90;;;;;;;;;;10375003;28;21479;-77
2022/01/21 23:40:20;;;;;;;0.90;0.90;;;;;;;;;;10395593;28;20251;-79
2022/01/21 23:45:23;;;;;;;2.80;0.98;;;;;;;;;;10420974;28;21046;-79
2022/01/21 23:50:25;;;;;;;1.40;1.30;;;;;;;;;;10434794;28;20205;-79
2022/01/21 23:55:27;;;;;;;1.10;1.10;;;;;;;;;;10454990;28;20197;-79
